Time;durP1;ratioP1;P1;durP2;ratioP2;P2;SDS_P1;SDS_P2;PMS_P1;PMS_P2;Temp;Humidity;BMP_temperature;BMP_pressure;BME280_temperature;BME280_humidity;BME280_pressure;Samples;Min_cycle;Max_cycle;Signal;HPM_P1;HPM_P2
2023/09/12 00:01:47;;;;;;;5.25;1.98;;;;;;;;;;4969477;28;20058;-68
2023/09/12 00:04:15;;;;;;;10.00;1.90;;;;;;;;;;4966253;28;20086;-68
2023/09/12 00:06:41;;;;;;;6.68;1.90;;;;;;;;;;4965357;28;20077;-68
2023/09/12 00:09:08;;;;;;;5.50;1.92;;;;;;;;;;4963876;28;20047;-69
2023/09/12 00:11:35;;;;;;;6.80;2.00;;;;;;;;;;4964499;28;20054;-67
2023/09/12 00:14:02;;;;;;;8.55;2.20;;;;;;;;;;4963768;28;21391;-67
2023/09/12 00:16:29;;;;;;;4.10;1.65;;;;;;;;;;4978673;28;20053;-66
2023/09/12 00:18:55;;;;;;;4.20;1.80;;;;;;;;;;4963307;28;20126;-66
2023/09/12 00:21:22;;;;;;;5.75;1.85;;;;;;;;;;4969425;28;20105;-68
2023/09/12 00:23:48;;;;;;;4.90;1.92;;;;;;;;;;4963279;28;20501;-67
2023/09/12 00:26:15;;;;;;;4.03;1.80;;;;;;;;;;4964167;28;20042;-68
2023/09/12 00:28:41;;;;;;;6.18;2.20;;;;;;;;;;4963512;28;20123;-68
2023/09/12 00:31:08;;;;;;;4.63;2.15;;;;;;;;;;4963463;28;20558;-67
2023/09/12 00:33:35;;;;;;;7.70;3.22;;;;;;;;;;4963588;28;20471;-62
2023/09/12 00:36:01;;;;;;;6.10;2.55;;;;;;;;;;4963700;28;20065;-63
2023/09/12 00:38:28;;;;;;;7.32;2.50;;;;;;;;;;4963782;28;20038;-68
2023/09/12 00:40:55;;;;;;;10.23;2.00;;;;;;;;;;4963510;28;20043;-70
2023/09/12 00:43:21;;;;;;;6.13;2.38;;;;;;;;;;4963823;28;21125;-65
2023/09/12 00:45:48;;;;;;;8.75;2.45;;;;;;;;;;4963569;28;20074;-65
2023/09/12 00:48:16;;;;;;;8.35;2.90;;;;;;;;;;4952320;28;20407;-64
2023/09/12 00:50:43;;;;;;;11.27;4.53;;;;;;;;;;4950035;28;20405;-67
2023/09/12 00:53:09;;;;;;;5.13;2.35;;;;;;;;;;4951051;28;20045;-64
2023/09/12 00:55:38;;;;;;;6.22;2.13;;;;;;;;;;4951061;28;20078;-65
2023/09/12 00:58:05;;;;;;;6.47;2.30;;;;;;;;;;4960789;28;20097;-69
2023/09/12 01:00:31;;;;;;;7.30;2.47;;;;;;;;;;4952532;28;20047;-70
2023/09/12 01:02:59;;;;;;;6.88;1.92;;;;;;;;;;4955677;28;20078;-70
2023/09/12 01:05:26;;;;;;;12.35;2.40;;;;;;;;;;4964392;28;20380;-70
2023/09/12 01:07:52;;;;;;;8.45;1.98;;;;;;;;;;4951043;28;20058;-72
2023/09/12 01:10:19;;;;;;;6.22;2.65;;;;;;;;;;4949990;28;20050;-70
2023/09/12 01:12:46;;;;;;;7.90;2.30;;;;;;;;;;4949701;28;20031;-69
2023/09/12 01:15:16;;;;;;;7.75;2.20;;;;;;;;;;4949116;28;20063;-70
2023/09/12 01:17:43;;;;;;;5.55;1.90;;;;;;;;;;4950689;28;20114;-70
2023/09/12 01:20:15;;;;;;;4.80;2.10;;;;;;;;;;4951263;28;20066;-72
2023/09/12 01:23:01;;;;;;;14.73;3.05;;;;;;;;;;4949693;28;20043;-71
2023/09/12 01:25:30;;;;;;;10.68;2.67;;;;;;;;;;4950905;28;20066;-71
2023/09/12 01:27:58;;;;;;;7.22;2.70;;;;;;;;;;4950589;28;20046;-71
2023/09/12 01:30:26;;;;;;;7.25;2.97;;;;;;;;;;4949069;28;20046;-72
2023/09/12 01:32:53;;;;;;;7.70;3.00;;;;;;;;;;4949537;28;20081;-71
2023/09/12 01:35:19;;;;;;;14.50;3.17;;;;;;;;;;4950089;28;20059;-71
2023/09/12 01:37:46;;;;;;;13.60;3.35;;;;;;;;;;4948113;28;20415;-71
2023/09/12 01:40:15;;;;;;;5.57;3.10;;;;;;;;;;4963979;28;20041;-71
2023/09/12 01:42:43;;;;;;;13.55;4.97;;;;;;;;;;4947881;28;20512;-71
2023/09/12 01:45:11;;;;;;;16.25;4.07;;;;;;;;;;4949775;28;20161;-71
2023/09/12 01:47:38;;;;;;;13.57;4.10;;;;;;;;;;4949067;28;20046;-64
2023/09/12 01:50:06;;;;;;;11.82;3.30;;;;;;;;;;4949278;28;20047;-64
2023/09/12 01:52:33;;;;;;;10.18;2.85;;;;;;;;;;4948936;28;20105;-64
2023/09/12 01:55:00;;;;;;;31.38;4.75;;;;;;;;;;4952006;28;20043;-64
2023/09/12 01:57:27;;;;;;;24.67;3.63;;;;;;;;;;4951508;28;20133;-65
2023/09/12 01:59:53;;;;;;;9.90;2.80;;;;;;;;;;4949947;28;20516;-63
2023/09/12 02:02:20;;;;;;;7.97;2.60;;;;;;;;;;4949627;28;20043;-62
2023/09/12 02:05:08;;;;;;;15.00;2.75;;;;;;;;;;4949501;28;20057;-61
2023/09/12 02:07:36;;;;;;;10.75;2.83;;;;;;;;;;4949354;28;20035;-63
2023/09/12 02:10:04;;;;;;;11.05;2.90;;;;;;;;;;4950332;28;20049;-64
2023/09/12 02:12:31;;;;;;;8.50;2.63;;;;;;;;;;4946481;28;20067;-64
2023/09/12 02:14:58;;;;;;;9.23;2.55;;;;;;;;;;4949032;28;20395;-64
2023/09/12 02:17:25;;;;;;;12.15;2.92;;;;;;;;;;4948072;28;20133;-64
2023/09/12 02:19:51;;;;;;;8.07;2.70;;;;;;;;;;4949458;28;20078;-64
2023/09/12 02:22:18;;;;;;;8.23;2.65;;;;;;;;;;4948315;28;20463;-64
2023/09/12 02:24:45;;;;;;;10.50;2.67;;;;;;;;;;4952427;28;20581;-64
2023/09/12 02:27:11;;;;;;;7.18;2.53;;;;;;;;;;4951456;28;20459;-65
2023/09/12 02:29:42;;;;;;;13.57;2.97;;;;;;;;;;4947736;28;20039;-63
2023/09/12 02:32:08;;;;;;;11.68;3.90;;;;;;;;;;4948119;28;20055;-62
2023/09/12 02:34:38;;;;;;;9.30;4.18;;;;;;;;;;4949031;28;20043;-65
2023/09/12 02:37:25;;;;;;;14.23;3.13;;;;;;;;;;4983574;28;20060;-61
2023/09/12 02:39:51;;;;;;;10.40;2.63;;;;;;;;;;4982877;28;20117;-62
2023/09/12 02:42:18;;;;;;;15.20;7.57;;;;;;;;;;4983971;28;20060;-64
2023/09/12 02:44:45;;;;;;;12.05;3.50;;;;;;;;;;4977196;28;20042;-64
2023/09/12 02:47:12;;;;;;;8.90;3.10;;;;;;;;;;4985096;28;20461;-63
2023/09/12 02:49:39;;;;;;;9.43;3.03;;;;;;;;;;4978171;28;20135;-63
2023/09/12 02:52:05;;;;;;;6.10;2.45;;;;;;;;;;4986628;28;20172;-62
2023/09/12 02:54:32;;;;;;;11.05;2.50;;;;;;;;;;4987047;28;20482;-63
2023/09/12 02:56:59;;;;;;;9.52;2.47;;;;;;;;;;4989086;28;20504;-63
2023/09/12 02:59:25;;;;;;;8.77;2.80;;;;;;;;;;4989137;28;20098;-64
2023/09/12 03:01:52;;;;;;;11.50;2.90;;;;;;;;;;4988269;28;20038;-64
2023/09/12 03:04:19;;;;;;;12.02;2.65;;;;;;;;;;4985983;28;20184;-65
2023/09/12 03:06:45;;;;;;;15.07;3.00;;;;;;;;;;4987051;28;20069;-65
2023/09/12 03:09:12;;;;;;;13.35;2.92;;;;;;;;;;4959255;28;20519;-65
2023/09/12 03:11:39;;;;;;;16.15;2.63;;;;;;;;;;4948023;28;20768;-64
2023/09/12 03:14:06;;;;;;;17.70;2.97;;;;;;;;;;4948126;28;20521;-65
2023/09/12 03:16:32;;;;;;;8.93;2.50;;;;;;;;;;4947990;28;20086;-64
2023/09/12 03:19:01;;;;;;;14.57;2.83;;;;;;;;;;4963102;28;20039;-66
2023/09/12 03:21:27;;;;;;;11.35;2.70;;;;;;;;;;4947734;28;20039;-66
2023/09/12 03:23:54;;;;;;;11.20;2.33;;;;;;;;;;4949432;28;20570;-65
2023/09/12 03:26:21;;;;;;;37.45;4.45;;;;;;;;;;4947213;28;20070;-65
2023/09/12 03:28:50;;;;;;;21.17;3.40;;;;;;;;;;4950381;28;20165;-64
2023/09/12 03:31:17;;;;;;;13.52;2.83;;;;;;;;;;4950910;28;20043;-63
2023/09/12 03:33:49;;;;;;;17.15;2.92;;;;;;;;;;4946838;28;20240;-64
2023/09/12 03:36:18;;;;;;;12.48;3.10;;;;;;;;;;4948590;28;20395;-64
2023/09/12 03:38:44;;;;;;;11.55;2.30;;;;;;;;;;4947942;28;20484;-64
2023/09/12 03:41:18;;;;;;;7.43;2.60;;;;;;;;;;4962709;28;20432;-65
2023/09/12 03:43:46;;;;;;;11.13;2.58;;;;;;;;;;4960604;28;20050;-65
2023/09/12 03:46:12;;;;;;;12.23;2.72;;;;;;;;;;4964834;28;20475;-64
2023/09/12 03:48:39;;;;;;;16.02;2.83;;;;;;;;;;4967767;28;20030;-65
2023/09/12 03:51:06;;;;;;;9.50;2.40;;;;;;;;;;4977017;28;20149;-65
2023/09/12 03:53:32;;;;;;;11.95;2.65;;;;;;;;;;4966703;28;20042;-64
2023/09/12 03:55:59;;;;;;;12.45;2.75;;;;;;;;;;4967034;28;20598;-66
2023/09/12 03:58:26;;;;;;;13.23;2.80;;;;;;;;;;4966595;28;20034;-65
2023/09/12 04:00:53;;;;;;;10.43;2.33;;;;;;;;;;4967109;28;20473;-66
2023/09/12 04:03:20;;;;;;;5.53;2.33;;;;;;;;;;4966011;28;20031;-66
2023/09/12 04:05:47;;;;;;;8.45;2.40;;;;;;;;;;4965863;28;20057;-65
2023/09/12 04:08:14;;;;;;;15.20;2.90;;;;;;;;;;4967005;28;20038;-66
2023/09/12 04:10:41;;;;;;;6.63;1.90;;;;;;;;;;4967299;28;20043;-65
2023/09/12 04:13:07;;;;;;;9.95;2.58;;;;;;;;;;4967889;28;20051;-65
2023/09/12 04:15:34;;;;;;;5.00;2.08;;;;;;;;;;4976698;28;20395;-64
2023/09/12 04:18:01;;;;;;;13.10;2.70;;;;;;;;;;4968819;28;20176;-65
2023/09/12 04:20:27;;;;;;;6.75;2.05;;;;;;;;;;4967570;28;20038;-64
2023/09/12 04:22:54;;;;;;;8.77;2.35;;;;;;;;;;4983571;28;20049;-64
2023/09/12 04:25:20;;;;;;;12.90;2.63;;;;;;;;;;4970222;28;20590;-63
2023/09/12 04:27:47;;;;;;;8.23;2.08;;;;;;;;;;4970859;28;20046;-64
2023/09/12 04:30:14;;;;;;;5.53;2.38;;;;;;;;;;4971257;28;20077;-64
2023/09/12 04:32:40;;;;;;;6.22;2.17;;;;;;;;;;4971805;28;20050;-64
2023/09/12 04:35:07;;;;;;;6.70;1.90;;;;;;;;;;4971957;28;20038;-64
2023/09/12 04:37:34;;;;;;;8.88;2.03;;;;;;;;;;4987151;28;20558;-65
2023/09/12 04:40:01;;;;;;;7.70;2.53;;;;;;;;;;4972643;28;20097;-65
2023/09/12 04:42:27;;;;;;;8.70;2.30;;;;;;;;;;4970870;28;20470;-64
2023/09/12 04:44:54;;;;;;;9.07;2.20;;;;;;;;;;4970968;28;20058;-65
2023/09/12 04:47:22;;;;;;;8.80;2.33;;;;;;;;;;4971552;28;20042;-65
2023/09/12 04:49:48;;;;;;;9.85;2.33;;;;;;;;;;4970538;28;20034;-65
2023/09/12 04:52:15;;;;;;;7.03;2.22;;;;;;;;;;4985400;28;20057;-66
2023/09/12 04:54:42;;;;;;;9.23;2.35;;;;;;;;;;4967811;28;20042;-65
2023/09/12 04:57:08;;;;;;;5.15;1.90;;;;;;;;;;4970288;28;20094;-65
2023/09/12 04:59:35;;;;;;;5.88;1.90;;;;;;;;;;4968545;28;20213;-64
2023/09/12 05:02:02;;;;;;;15.95;2.40;;;;;;;;;;4970220;28;20514;-64
2023/09/12 05:04:29;;;;;;;12.00;2.67;;;;;;;;;;4968581;28;20041;-64
2023/09/12 05:06:56;;;;;;;11.93;2.28;;;;;;;;;;4969323;28;20373;-64
2023/09/12 05:09:23;;;;;;;5.57;2.08;;;;;;;;;;4970306;28;20391;-64
2023/09/12 05:11:49;;;;;;;10.18;2.50;;;;;;;;;;4983968;28;20054;-65
2023/09/12 05:14:16;;;;;;;6.80;2.33;;;;;;;;;;4968619;28;20035;-64
2023/09/12 05:16:43;;;;;;;9.20;2.20;;;;;;;;;;4970582;28;20548;-64
2023/09/12 05:19:09;;;;;;;8.38;2.35;;;;;;;;;;4970654;28;20045;-66
2023/09/12 05:21:36;;;;;;;6.68;2.20;;;;;;;;;;4970100;28;20039;-65
2023/09/12 05:24:02;;;;;;;10.35;2.45;;;;;;;;;;4985096;28;20035;-65
2023/09/12 05:26:29;;;;;;;8.77;2.45;;;;;;;;;;4970005;28;20420;-64
2023/09/12 05:28:56;;;;;;;9.85;2.40;;;;;;;;;;4970447;28;20050;-64
2023/09/12 05:31:22;;;;;;;8.35;2.55;;;;;;;;;;4971237;28;20046;-64
2023/09/12 05:33:49;;;;;;;14.20;2.65;;;;;;;;;;4969931;28;20126;-66
2023/09/12 05:36:15;;;;;;;4.93;2.15;;;;;;;;;;4969274;28;20578;-65
2023/09/12 05:38:42;;;;;;;8.15;2.20;;;;;;;;;;4969097;28;20042;-66
2023/09/12 05:41:09;;;;;;;7.80;2.28;;;;;;;;;;4970906;28;20463;-65
2023/09/12 05:43:35;;;;;;;9.45;2.67;;;;;;;;;;4968736;28;20046;-65
2023/09/12 05:46:02;;;;;;;7.50;2.63;;;;;;;;;;4969930;28;21506;-67
2023/09/12 05:48:29;;;;;;;10.48;2.33;;;;;;;;;;4969634;28;20047;-65
2023/09/12 05:50:56;;;;;;;8.10;2.35;;;;;;;;;;4969368;28;20066;-65
2023/09/12 05:53:22;;;;;;;8.32;2.40;;;;;;;;;;4982370;28;20198;-65
2023/09/12 05:55:49;;;;;;;7.50;2.58;;;;;;;;;;4969250;28;20050;-65
2023/09/12 05:58:15;;;;;;;11.57;2.72;;;;;;;;;;4984409;28;20046;-65
2023/09/12 06:00:42;;;;;;;13.95;2.58;;;;;;;;;;4966262;28;21368;-66
2023/09/12 06:03:09;;;;;;;6.55;2.33;;;;;;;;;;4969080;28;20442;-65
2023/09/12 06:05:35;;;;;;;10.48;2.60;;;;;;;;;;4969564;28;20620;-64
2023/09/12 06:08:03;;;;;;;5.55;2.40;;;;;;;;;;4970784;28;20547;-65
2023/09/12 06:10:30;;;;;;;9.20;2.60;;;;;;;;;;4976617;28;20041;-66
2023/09/12 06:12:57;;;;;;;7.95;2.05;;;;;;;;;;4968953;28;20038;-64
2023/09/12 06:15:23;;;;;;;9.35;2.25;;;;;;;;;;4966444;28;20077;-64
2023/09/12 06:17:50;;;;;;;7.72;2.30;;;;;;;;;;4968560;28;20078;-64
2023/09/12 06:20:17;;;;;;;5.88;2.28;;;;;;;;;;4969360;28;20051;-64
2023/09/12 06:22:43;;;;;;;7.50;2.80;;;;;;;;;;4967527;28;20035;-65
2023/09/12 06:25:10;;;;;;;10.75;2.40;;;;;;;;;;4968165;28;20060;-64
2023/09/12 06:27:37;;;;;;;7.55;2.50;;;;;;;;;;4969568;28;20085;-63
2023/09/12 06:30:03;;;;;;;7.60;2.38;;;;;;;;;;4969504;28;20495;-64
2023/09/12 06:32:30;;;;;;;7.07;2.40;;;;;;;;;;4967139;28;20041;-64
2023/09/12 06:34:57;;;;;;;8.30;2.35;;;;;;;;;;4967657;28;20137;-64
2023/09/12 06:37:23;;;;;;;7.20;2.42;;;;;;;;;;4969177;28;20080;-65
2023/09/12 06:39:51;;;;;;;8.82;2.50;;;;;;;;;;4945836;28;20031;-65
2023/09/12 06:42:17;;;;;;;7.20;2.25;;;;;;;;;;4963540;28;20053;-65
2023/09/12 06:44:44;;;;;;;4.70;2.15;;;;;;;;;;4946497;28;20468;-64
2023/09/12 06:47:10;;;;;;;7.93;2.40;;;;;;;;;;4944963;28;20310;-65
2023/09/12 06:49:37;;;;;;;5.63;2.10;;;;;;;;;;4945470;28;20082;-64
2023/09/12 06:52:04;;;;;;;7.72;2.67;;;;;;;;;;4945253;28;20106;-64
2023/09/12 06:54:31;;;;;;;6.55;2.13;;;;;;;;;;4943023;28;20570;-64
2023/09/12 06:56:58;;;;;;;6.03;2.28;;;;;;;;;;4943978;28;20110;-64
2023/09/12 06:59:25;;;;;;;7.43;2.22;;;;;;;;;;4952357;28;20050;-64
2023/09/12 07:01:51;;;;;;;7.38;2.22;;;;;;;;;;4965797;28;20047;-64
2023/09/12 07:04:18;;;;;;;8.88;2.60;;;;;;;;;;4966559;28;20327;-63
2023/09/12 07:06:44;;;;;;;6.00;2.35;;;;;;;;;;4965410;28;20060;-64
2023/09/12 07:09:14;;;;;;;5.55;2.20;;;;;;;;;;4966241;28;20121;-64
2023/09/12 07:11:41;;;;;;;6.57;2.50;;;;;;;;;;4966490;28;21395;-64
2023/09/12 07:14:09;;;;;;;8.65;1.90;;;;;;;;;;4965615;28;20824;-64
2023/09/12 07:16:36;;;;;;;7.47;2.50;;;;;;;;;;4963744;28;20137;-65
2023/09/12 07:19:03;;;;;;;7.13;2.60;;;;;;;;;;4966143;28;20514;-65
2023/09/12 07:21:30;;;;;;;7.25;1.98;;;;;;;;;;4966413;28;20062;-65
2023/09/12 07:23:56;;;;;;;7.10;2.20;;;;;;;;;;4965564;28;20034;-64
2023/09/12 07:26:23;;;;;;;4.88;2.13;;;;;;;;;;4965868;28;20125;-64
2023/09/12 07:28:50;;;;;;;5.40;2.38;;;;;;;;;;4965479;28;20057;-63
2023/09/12 07:31:17;;;;;;;6.95;1.88;;;;;;;;;;4965794;28;20046;-63
2023/09/12 07:33:44;;;;;;;4.30;1.83;;;;;;;;;;4965822;28;20050;-63
2023/09/12 07:36:12;;;;;;;4.80;1.80;;;;;;;;;;4964598;28;20058;-64
2023/09/12 07:38:38;;;;;;;6.50;2.20;;;;;;;;;;4968348;28;20042;-64
2023/09/12 07:41:05;;;;;;;4.05;2.00;;;;;;;;;;4966718;28;20295;-64
2023/09/12 07:43:31;;;;;;;4.85;2.00;;;;;;;;;;4967194;28;20503;-63
2023/09/12 07:45:59;;;;;;;5.10;1.73;;;;;;;;;;4967308;28;20447;-65
2023/09/12 07:48:25;;;;;;;6.35;1.77;;;;;;;;;;4966968;28;20046;-64
2023/09/12 07:50:52;;;;;;;5.30;1.90;;;;;;;;;;4968119;28;20130;-64
2023/09/12 07:53:19;;;;;;;5.25;1.60;;;;;;;;;;4966962;28;20042;-64
2023/09/12 07:55:46;;;;;;;4.10;1.55;;;;;;;;;;4965006;28;20146;-62
2023/09/12 07:58:13;;;;;;;7.20;2.00;;;;;;;;;;4966626;28;20042;-64
2023/09/12 08:00:40;;;;;;;8.27;1.83;;;;;;;;;;4968821;28;20038;-64
2023/09/12 08:03:07;;;;;;;4.13;1.52;;;;;;;;;;4968888;28;20077;-63
2023/09/12 08:05:33;;;;;;;3.58;1.63;;;;;;;;;;4968869;28;20391;-65
2023/09/12 08:08:00;;;;;;;6.82;1.77;;;;;;;;;;4970277;28;20394;-66
2023/09/12 08:10:27;;;;;;;3.65;1.55;;;;;;;;;;4982408;28;20042;-64
2023/09/12 08:12:54;;;;;;;4.00;1.65;;;;;;;;;;4967940;28;20151;-64
2023/09/12 08:15:20;;;;;;;5.15;1.52;;;;;;;;;;4968393;28;20042;-65
2023/09/12 08:17:51;;;;;;;4.40;1.60;;;;;;;;;;4977032;28;20694;-64
2023/09/12 08:20:18;;;;;;;4.22;1.70;;;;;;;;;;4969535;28;20046;-65
2023/09/12 08:22:45;;;;;;;4.45;1.80;;;;;;;;;;4984043;28;20042;-63
2023/09/12 08:25:13;;;;;;;4.95;1.88;;;;;;;;;;4968452;28;20969;-65
2023/09/12 08:27:40;;;;;;;3.80;1.48;;;;;;;;;;4969424;28;20522;-63
2023/09/12 08:30:07;;;;;;;4.30;1.60;;;;;;;;;;4973001;28;20141;-64
2023/09/12 08:32:33;;;;;;;6.15;1.80;;;;;;;;;;4970676;28;20594;-65
2023/09/12 08:35:00;;;;;;;6.05;1.60;;;;;;;;;;4969250;28;20302;-64
2023/09/12 08:37:27;;;;;;;3.28;1.35;;;;;;;;;;4982561;28;20065;-65
2023/09/12 08:40:13;;;;;;;3.72;1.60;;;;;;;;;;5025994;28;20052;-65
2023/09/12 08:42:40;;;;;;;4.55;1.65;;;;;;;;;;5024467;28;20045;-64
2023/09/12 08:45:17;;;;;;;5.80;1.50;;;;;;;;;;5026879;28;20045;-64
2023/09/12 08:47:45;;;;;;;5.05;1.60;;;;;;;;;;5024751;28;20045;-65
2023/09/12 08:50:16;;;;;;;6.30;1.75;;;;;;;;;;5017398;28;20442;-64
2023/09/12 08:52:43;;;;;;;7.30;1.95;;;;;;;;;;5024941;28;20472;-64
2023/09/12 08:55:10;;;;;;;4.00;1.67;;;;;;;;;;5026457;28;20095;-66
2023/09/12 08:57:38;;;;;;;4.53;1.58;;;;;;;;;;5025839;28;20057;-69
2023/09/12 09:00:06;;;;;;;4.07;1.40;;;;;;;;;;5025655;28;20183;-65
2023/09/12 09:02:38;;;;;;;3.28;1.40;;;;;;;;;;5025683;28;20133;-65
2023/09/12 09:05:06;;;;;;;4.47;1.70;;;;;;;;;;5026344;28;20041;-64
2023/09/12 09:07:34;;;;;;;4.50;1.50;;;;;;;;;;5026364;28;20148;-64
2023/09/12 09:10:05;;;;;;;4.32;1.52;;;;;;;;;;5009714;28;20296;-67
2023/09/12 09:12:32;;;;;;;8.32;1.60;;;;;;;;;;5023914;28;20048;-69
2023/09/12 09:14:59;;;;;;;3.45;1.40;;;;;;;;;;5026294;28;20722;-63
2023/09/12 09:17:27;;;;;;;4.22;1.65;;;;;;;;;;5003928;28;20157;-64
2023/09/12 09:19:54;;;;;;;5.38;1.63;;;;;;;;;;4970704;28;20038;-64
2023/09/12 09:22:20;;;;;;;6.25;1.35;;;;;;;;;;4968624;28;20043;-63
2023/09/12 09:24:47;;;;;;;4.38;1.50;;;;;;;;;;4968163;28;20042;-63
2023/09/12 09:27:33;;;;;;;3.75;1.48;;;;;;;;;;4968419;28;20531;-64
2023/09/12 09:30:00;;;;;;;3.60;1.17;;;;;;;;;;4968606;28;20183;-64
2023/09/12 09:32:28;;;;;;;5.60;1.63;;;;;;;;;;4969479;28;20852;-65
2023/09/12 09:34:54;;;;;;;3.92;1.50;;;;;;;;;;4970904;28;20156;-65
2023/09/12 09:37:21;;;;;;;4.85;1.40;;;;;;;;;;4978540;28;20050;-69
2023/09/12 09:39:52;;;;;;;4.28;1.40;;;;;;;;;;4983193;28;20038;-65
2023/09/12 09:42:18;;;;;;;4.60;1.65;;;;;;;;;;4969267;28;20038;-64
2023/09/12 09:44:45;;;;;;;3.65;1.63;;;;;;;;;;4966480;28;20303;-64
2023/09/12 09:47:12;;;;;;;3.90;1.55;;;;;;;;;;4982015;28;20035;-62
2023/09/12 09:49:38;;;;;;;3.85;1.45;;;;;;;;;;4979615;28;20169;-63
2023/09/12 09:52:05;;;;;;;5.40;1.27;;;;;;;;;;4982980;28;20045;-63
2023/09/12 09:54:32;;;;;;;4.68;1.60;;;;;;;;;;4964814;28;20117;-64
2023/09/12 09:56:59;;;;;;;4.15;1.58;;;;;;;;;;4983390;28;20070;-64
2023/09/12 09:59:26;;;;;;;5.80;1.63;;;;;;;;;;4962137;28;21364;-63
2023/09/12 10:01:57;;;;;;;3.70;1.40;;;;;;;;;;4983131;28;20050;-63
2023/09/12 10:04:24;;;;;;;4.10;1.50;;;;;;;;;;4981272;28;20035;-64
2023/09/12 10:06:51;;;;;;;6.30;1.70;;;;;;;;;;4966950;28;20038;-66
2023/09/12 10:09:19;;;;;;;3.67;1.40;;;;;;;;;;4967806;28;20042;-65
2023/09/12 10:11:48;;;;;;;5.78;1.50;;;;;;;;;;4967809;28;20061;-64
2023/09/12 10:14:16;;;;;;;3.88;1.50;;;;;;;;;;4969716;28;20048;-63
2023/09/12 10:16:47;;;;;;;5.70;1.50;;;;;;;;;;4981878;28;20361;-65
2023/09/12 10:19:17;;;;;;;3.92;1.63;;;;;;;;;;4967714;28;20034;-64
2023/09/12 10:22:02;;;;;;;3.83;1.40;;;;;;;;;;4966696;28;20523;-63
2023/09/12 10:24:30;;;;;;;8.95;1.52;;;;;;;;;;4963165;28;20050;-63
2023/09/12 10:26:57;;;;;;;4.13;1.33;;;;;;;;;;4969480;28;20046;-66
2023/09/12 10:29:47;;;;;;;3.70;1.73;;;;;;;;;;5024827;28;20104;-65
2023/09/12 10:32:15;;;;;;;3.58;1.50;;;;;;;;;;5010802;28;20041;-62
2023/09/12 10:34:44;;;;;;;6.40;1.73;;;;;;;;;;5024190;28;20375;-67
2023/09/12 10:37:12;;;;;;;5.07;1.70;;;;;;;;;;5025327;28;20694;-64
2023/09/12 10:39:40;;;;;;;4.63;1.55;;;;;;;;;;5024985;28;20136;-67
2023/09/12 10:42:07;;;;;;;3.47;1.50;;;;;;;;;;5004904;28;20055;-64
2023/09/12 10:44:34;;;;;;;5.18;1.90;;;;;;;;;;5021115;28;20545;-64
2023/09/12 10:47:02;;;;;;;4.60;1.50;;;;;;;;;;5023734;28;20041;-65
2023/09/12 10:49:29;;;;;;;4.97;1.83;;;;;;;;;;5010791;28;20041;-65
2023/09/12 10:51:56;;;;;;;3.83;1.73;;;;;;;;;;5000345;28;20044;-71
2023/09/12 10:54:26;;;;;;;4.32;1.75;;;;;;;;;;5000543;28;20040;-65
2023/09/12 10:57:06;;;;;;;4.45;1.77;;;;;;;;;;5021727;28;20045;-64
2023/09/12 10:59:35;;;;;;;4.28;1.90;;;;;;;;;;5021133;28;20045;-63
2023/09/12 11:02:20;;;;;;;5.72;1.80;;;;;;;;;;5022961;28;20404;-61
2023/09/12 11:04:47;;;;;;;5.22;2.13;;;;;;;;;;5021086;28;20440;-64
2023/09/12 11:07:34;;;;;;;5.15;2.15;;;;;;;;;;4996513;28;20130;-64
2023/09/12 11:10:18;;;;;;;4.28;1.80;;;;;;;;;;4965885;28;20122;-65
2023/09/12 11:12:46;;;;;;;3.63;1.80;;;;;;;;;;4966462;28;20699;-64
2023/09/12 11:15:13;;;;;;;5.40;2.05;;;;;;;;;;4980588;28;20057;-64
2023/09/12 11:17:40;;;;;;;5.88;2.10;;;;;;;;;;4965066;28;20054;-65
2023/09/12 11:20:10;;;;;;;6.53;1.95;;;;;;;;;;4965145;28;20475;-64
2023/09/12 11:22:44;;;;;;;6.50;1.77;;;;;;;;;;4965933;28;20638;-63
2023/09/12 11:25:18;;;;;;;5.07;2.15;;;;;;;;;;4965547;28;20046;-63
2023/09/12 11:27:51;;;;;;;4.55;2.03;;;;;;;;;;4973711;28;20050;-62
2023/09/12 11:30:26;;;;;;;4.35;1.83;;;;;;;;;;4965091;28;20030;-62
2023/09/12 11:32:55;;;;;;;5.00;1.98;;;;;;;;;;4980059;28;20400;-61
2023/09/12 11:35:25;;;;;;;4.57;2.00;;;;;;;;;;4965771;28;20191;-63
2023/09/12 11:37:54;;;;;;;4.47;2.00;;;;;;;;;;4965082;28;20052;-63
2023/09/12 11:40:33;;;;;;;6.10;2.45;;;;;;;;;;4966535;28;20042;-63
2023/09/12 11:43:00;;;;;;;4.40;2.10;;;;;;;;;;4965760;28;20170;-63
2023/09/12 11:45:28;;;;;;;4.20;1.88;;;;;;;;;;4968443;28;20034;-63
2023/09/12 11:47:55;;;;;;;6.95;2.42;;;;;;;;;;4969272;28;20038;-62
2023/09/12 11:50:30;;;;;;;5.65;2.05;;;;;;;;;;4965039;28;20073;-65
2023/09/12 11:53:01;;;;;;;4.50;2.13;;;;;;;;;;4964982;28;20034;-64
2023/09/12 11:55:30;;;;;;;8.23;2.30;;;;;;;;;;4965261;28;20043;-63
2023/09/12 11:57:58;;;;;;;6.03;2.10;;;;;;;;;;4966583;28;20125;-64
2023/09/12 12:00:26;;;;;;;8.35;2.70;;;;;;;;;;4965228;28;20042;-65
2023/09/12 12:02:53;;;;;;;6.70;2.35;;;;;;;;;;4976522;28;20031;-64
2023/09/12 12:05:20;;;;;;;6.47;2.67;;;;;;;;;;4966579;28;20075;-64
2023/09/12 12:07:47;;;;;;;4.97;2.33;;;;;;;;;;4979141;28;20050;-64
2023/09/12 12:10:14;;;;;;;5.25;2.40;;;;;;;;;;4982140;28;20065;-65
2023/09/12 12:12:41;;;;;;;6.28;2.85;;;;;;;;;;4981251;28;20488;-64
2023/09/12 12:15:11;;;;;;;5.18;2.40;;;;;;;;;;4980174;28;20867;-65
2023/09/12 12:17:40;;;;;;;5.20;2.55;;;;;;;;;;4966549;28;20128;-68
2023/09/12 12:20:11;;;;;;;4.85;2.22;;;;;;;;;;4980148;28;20161;-64
2023/09/12 12:22:41;;;;;;;5.68;2.30;;;;;;;;;;4965756;28;20133;-67
2023/09/12 12:25:11;;;;;;;6.40;2.67;;;;;;;;;;4966078;28;20068;-64
2023/09/12 12:27:38;;;;;;;5.15;2.20;;;;;;;;;;4981078;28;20503;-65
2023/09/12 12:30:06;;;;;;;6.32;2.45;;;;;;;;;;4980382;28;20481;-63
2023/09/12 12:32:33;;;;;;;5.30;2.35;;;;;;;;;;4965270;28;20038;-65
2023/09/12 12:35:02;;;;;;;4.68;2.30;;;;;;;;;;4969744;28;20564;-63
2023/09/12 12:37:32;;;;;;;4.43;2.22;;;;;;;;;;4967935;28;20069;-65
2023/09/12 12:40:00;;;;;;;8.27;2.55;;;;;;;;;;4966857;28;20157;-64
2023/09/12 12:42:47;;;;;;;6.82;2.65;;;;;;;;;;4979807;28;20311;-64
2023/09/12 12:45:22;;;;;;;6.70;2.10;;;;;;;;;;4985047;28;20050;-68
2023/09/12 12:47:52;;;;;;;7.25;2.13;;;;;;;;;;4970125;28;20050;-64
2023/09/12 12:50:20;;;;;;;6.60;2.42;;;;;;;;;;4972908;28;20034;-63
2023/09/12 12:52:48;;;;;;;5.80;2.30;;;;;;;;;;4969870;28;20054;-64
2023/09/12 12:55:16;;;;;;;7.50;2.30;;;;;;;;;;4969634;28;20074;-65
2023/09/12 12:58:04;;;;;;;4.18;2.22;;;;;;;;;;5008025;28;20088;-65
2023/09/12 13:00:31;;;;;;;6.60;2.00;;;;;;;;;;5008636;28;20099;-64
2023/09/12 13:02:58;;;;;;;9.57;2.58;;;;;;;;;;5011852;28;20529;-64
2023/09/12 13:05:28;;;;;;;6.18;2.38;;;;;;;;;;5010599;28;20815;-62
2023/09/12 13:07:55;;;;;;;6.57;2.50;;;;;;;;;;5012211;28;20053;-61
2023/09/12 13:10:22;;;;;;;5.40;2.55;;;;;;;;;;5008697;28;20057;-63
2023/09/12 13:12:49;;;;;;;7.65;2.53;;;;;;;;;;5008602;28;20045;-64
2023/09/12 13:15:17;;;;;;;5.15;2.30;;;;;;;;;;5008593;28;20592;-63
2023/09/12 13:17:44;;;;;;;8.50;2.38;;;;;;;;;;5008337;28;20067;-62
2023/09/12 13:20:11;;;;;;;6.68;2.53;;;;;;;;;;5010063;28;20061;-63
2023/09/12 13:22:38;;;;;;;6.55;2.20;;;;;;;;;;5010195;28;20603;-63
2023/09/12 13:25:05;;;;;;;7.80;2.55;;;;;;;;;;5009687;28;20046;-64
2023/09/12 13:27:33;;;;;;;6.45;2.70;;;;;;;;;;5007320;28;20048;-64
2023/09/12 13:29:59;;;;;;;16.70;3.38;;;;;;;;;;5010544;28;20494;-66
2023/09/12 13:32:26;;;;;;;11.45;2.85;;;;;;;;;;5007316;28;20564;-64
2023/09/12 13:34:54;;;;;;;6.38;3.03;;;;;;;;;;4998142;28;20042;-63
2023/09/12 13:37:40;;;;;;;8.77;2.80;;;;;;;;;;4989083;28;20053;-67
2023/09/12 13:40:08;;;;;;;8.30;2.80;;;;;;;;;;4987140;28;20036;-64
2023/09/12 13:42:35;;;;;;;7.45;2.85;;;;;;;;;;4989298;28;20046;-66
2023/09/12 13:45:02;;;;;;;6.20;2.70;;;;;;;;;;4976269;28;20136;-67
2023/09/12 13:47:29;;;;;;;5.88;3.00;;;;;;;;;;4989136;28;20536;-63
2023/09/12 13:49:56;;;;;;;9.02;2.90;;;;;;;;;;4976302;28;20075;-65
2023/09/12 13:52:23;;;;;;;7.82;2.58;;;;;;;;;;4987300;28;20265;-67
2023/09/12 13:54:50;;;;;;;5.88;2.53;;;;;;;;;;4990468;28;20529;-65
2023/09/12 13:57:17;;;;;;;6.32;2.38;;;;;;;;;;4991606;28;20185;-66
2023/09/12 13:59:43;;;;;;;9.25;2.60;;;;;;;;;;4990698;28;20060;-63
2023/09/12 14:02:10;;;;;;;7.45;2.80;;;;;;;;;;4991191;28;20038;-65
2023/09/12 14:04:37;;;;;;;7.10;2.70;;;;;;;;;;4988913;28;20461;-64
2023/09/12 14:07:03;;;;;;;6.07;2.60;;;;;;;;;;4987726;28;20046;-64
2023/09/12 14:09:30;;;;;;;6.32;2.50;;;;;;;;;;4990441;28;20041;-64
2023/09/12 14:11:56;;;;;;;5.43;2.50;;;;;;;;;;4990319;28;20126;-63
2023/09/12 14:14:23;;;;;;;7.07;2.28;;;;;;;;;;4984848;28;20101;-64
2023/09/12 14:16:50;;;;;;;5.40;2.33;;;;;;;;;;4977593;28;20536;-63
2023/09/12 14:19:16;;;;;;;6.43;2.17;;;;;;;;;;4972202;28;20045;-63
2023/09/12 14:21:46;;;;;;;7.65;2.53;;;;;;;;;;4970006;28;20386;-65
2023/09/12 14:24:12;;;;;;;6.13;2.40;;;;;;;;;;4968999;28;20077;-64
2023/09/12 14:26:40;;;;;;;4.60;2.28;;;;;;;;;;4971386;28;20034;-63
2023/09/12 14:29:07;;;;;;;5.25;2.40;;;;;;;;;;4969107;28;20038;-63
2023/09/12 14:31:35;;;;;;;5.10;2.10;;;;;;;;;;4970493;28;20120;-64
2023/09/12 14:34:03;;;;;;;8.93;2.17;;;;;;;;;;4967974;28;21347;-70
2023/09/12 14:36:30;;;;;;;7.57;2.60;;;;;;;;;;4969954;28;20058;-69
2023/09/12 14:38:57;;;;;;;4.43;1.90;;;;;;;;;;4987423;28;20053;-62
2023/09/12 14:41:23;;;;;;;5.32;2.20;;;;;;;;;;4986062;28;20141;-62
2023/09/12 14:43:50;;;;;;;7.20;2.38;;;;;;;;;;4972155;28;20042;-63
2023/09/12 14:46:17;;;;;;;5.55;2.53;;;;;;;;;;4977209;28;20042;-66